Time;durP1;ratioP1;P1;durP2;ratioP2;P2;SDS_P1;SDS_P2;PMS_P1;PMS_P2;Temp;Humidity;BMP_temperature;BMP_pressure;BME280_temperature;BME280_humidity;BME280_pressure;Samples;Min_cycle;Max_cycle;Signal;HPM_P1;HPM_P2
2022/07/11 00:01:05;;;;;;;1.93;1.20;;;13.50;99.90;;;-141.84;78.29;19486.66;5031166;28;20644;-64
2022/07/11 00:03:33;;;;;;;3.47;1.40;;;13.50;99.90;;;-141.84;77.97;19596.38;5031005;28;20232;-66
2022/07/11 00:06:02;;;;;;;2.27;1.50;;;13.50;99.90;;;-141.84;77.13;19539.47;5030892;28;20276;-65
2022/07/11 00:08:30;;;;;;;4.07;1.90;;;13.60;99.90;;;-141.84;78.31;19511.03;5030934;28;20604;-64
2022/07/11 00:10:59;;;;;;;3.87;1.53;;;13.50;99.90;;;-141.84;78.52;19533.38;5031467;28;20236;-66
2022/07/11 00:13:28;;;;;;;3.23;1.63;;;13.50;99.90;;;-141.84;79.06;19533.38;5030524;28;20252;-65
2022/07/11 00:15:56;;;;;;;2.13;1.20;;;13.40;99.90;;;-141.84;79.16;19486.66;5030910;28;20308;-64
2022/07/11 00:18:25;;;;;;;2.17;1.23;;;13.40;99.90;;;-141.84;79.35;19525.25;5030819;28;20233;-66
2022/07/11 00:20:53;;;;;;;1.50;1.10;;;13.40;99.90;;;-141.84;80.04;19484.59;5030818;28;20233;-67
2022/07/11 00:23:21;;;;;;;2.07;1.30;;;13.20;99.90;;;-141.84;80.14;19472.41;5030546;28;20293;-64
2022/07/11 00:25:49;;;;;;;3.57;1.60;;;13.20;99.90;;;-141.84;80.14;19443.97;5031281;28;20202;-66
2022/07/11 00:28:19;;;;;;;3.37;1.43;;;13.20;99.90;;;-141.84;80.44;19498.84;5030584;28;20225;-65
2022/07/11 00:30:48;;;;;;;2.43;1.27;;;13.10;99.90;;;-141.84;81.04;19464.28;5030604;28;20618;-65
2022/07/11 00:33:16;;;;;;;3.63;1.37;;;13.10;99.90;;;-141.84;81.13;19472.41;5030228;28;20662;-66
2022/07/11 00:35:44;;;;;;;2.00;1.30;;;13.10;99.90;;;-141.84;81.01;19484.59;5030167;28;20249;-67
2022/07/11 00:38:12;;;;;;;3.50;1.50;;;13.10;99.90;;;-141.84;80.37;19486.66;5031016;28;20571;-65
2022/07/11 00:40:41;;;;;;;2.47;1.33;;;13.10;99.90;;;-141.84;80.21;19464.28;5030566;28;20788;-64
2022/07/11 00:43:09;;;;;;;3.43;1.67;;;13.10;99.90;;;-141.84;80.76;19448.03;5030398;28;20313;-65
2022/07/11 00:45:39;;;;;;;2.97;1.37;;;13.10;99.90;;;-141.84;80.94;19458.19;5030745;28;20237;-64
2022/07/11 00:48:07;;;;;;;4.30;1.40;;;13.10;99.90;;;-141.84;80.99;19446.00;5030554;28;20226;-64
2022/07/11 00:50:36;;;;;;;2.57;1.30;;;13.00;99.90;;;-141.84;81.35;19456.16;5030443;28;20630;-65
2022/07/11 00:53:05;;;;;;;3.47;1.33;;;13.00;99.90;;;-141.84;81.79;19446.00;5030506;28;20238;-65
2022/07/11 00:55:33;;;;;;;2.17;1.40;;;13.00;99.90;;;-141.84;81.17;19476.47;5030242;28;20307;-66
2022/07/11 00:58:01;;;;;;;2.37;1.30;;;13.00;99.90;;;-141.84;81.67;19446.00;5030321;28;20679;-65
2022/07/11 01:00:30;;;;;;;1.53;1.30;;;13.00;99.90;;;-141.84;81.50;19448.03;5030147;28;20784;-65
2022/07/11 01:02:59;;;;;;;3.37;1.63;;;12.90;99.90;;;-141.84;81.92;19423.66;5030197;28;20230;-65
2022/07/11 01:05:28;;;;;;;3.97;1.67;;;12.90;99.90;;;-141.84;81.90;19464.28;5030045;28;20237;-64
2022/07/11 01:07:56;;;;;;;2.03;1.30;;;12.90;99.90;;;-141.84;82.72;19385.03;5030756;28;20202;-64
2022/07/11 01:10:24;;;;;;;2.13;1.47;;;12.80;99.90;;;-141.84;83.38;19393.16;5030151;28;20240;-65
2022/07/11 01:12:52;;;;;;;3.23;1.73;;;12.80;99.90;;;-141.84;82.96;19397.22;5030095;28;20309;-64
2022/07/11 01:15:20;;;;;;;2.33;1.47;;;12.80;99.90;;;-141.84;83.14;19411.44;5030092;28;20309;-67
2022/07/11 01:17:49;;;;;;;2.57;1.70;;;12.70;99.90;;;-141.84;82.66;19423.66;5030252;28;20329;-65
2022/07/11 01:20:18;;;;;;;3.77;1.60;;;12.70;99.90;;;-141.84;83.08;19413.47;5030355;28;20213;-64
2022/07/11 01:22:53;;;;;;;2.77;1.50;;;12.70;99.90;;;-141.84;83.10;19423.66;5030043;28;20244;-64
2022/07/11 01:25:34;;;;;;;2.73;1.57;;;12.70;99.90;;;-141.84;83.34;19405.34;5029976;28;20225;-64
2022/07/11 01:28:06;;;;;;;1.63;1.33;;;12.60;99.90;;;-141.84;83.31;19374.88;5030260;28;20292;-65
2022/07/11 01:30:34;;;;;;;4.10;1.93;;;12.60;99.90;;;-141.84;83.67;19378.94;5020942;28;20222;-66
2022/07/11 01:33:02;;;;;;;1.60;1.40;;;12.60;99.90;;;-141.84;83.99;19374.88;5010403;28;20231;-64
2022/07/11 01:35:31;;;;;;;3.80;1.77;;;12.50;99.90;;;-141.84;84.21;19374.88;5009794;28;20226;-64
2022/07/11 01:37:59;;;;;;;4.37;1.70;;;12.50;99.90;;;-141.84;84.67;19372.84;5029790;28;20577;-64
2022/07/11 01:40:31;;;;;;;3.63;1.80;;;12.50;99.90;;;-141.84;84.63;19378.94;5029772;28;20229;-65
2022/07/11 01:43:00;;;;;;;3.67;1.70;;;12.40;99.90;;;-141.84;84.97;19383.00;5029920;28;20306;-65
2022/07/11 01:45:28;;;;;;;3.20;1.50;;;12.40;99.90;;;-141.84;84.55;19344.41;5031928;28;20259;-65
2022/07/11 01:47:56;;;;;;;3.73;1.83;;;12.40;99.90;;;-141.84;85.00;19358.63;5034770;28;20658;-66
2022/07/11 01:50:24;;;;;;;3.30;1.73;;;12.40;99.90;;;-141.84;85.11;19356.59;5033638;28;20202;-65
2022/07/11 01:52:52;;;;;;;4.63;1.97;;;12.30;99.90;;;-141.84;85.23;19340.31;5034215;28;20230;-65
2022/07/11 01:55:20;;;;;;;2.17;1.60;;;12.30;99.90;;;-141.84;85.07;19334.22;5033419;28;20226;-65
2022/07/11 01:57:50;;;;;;;2.67;1.50;;;12.30;99.90;;;-141.84;85.26;19342.34;5033498;28;20280;-65
2022/07/11 02:00:18;;;;;;;1.93;1.70;;;12.30;99.90;;;-141.84;85.12;19352.53;5033262;28;20232;-64
2022/07/11 02:02:46;;;;;;;3.13;1.40;;;12.30;99.90;;;-141.84;85.58;19322.03;5033745;28;20226;-65
2022/07/11 02:05:15;;;;;;;2.67;1.40;;;12.20;99.90;;;-141.84;85.07;19330.16;5033859;28;20198;-65
2022/07/11 02:10:37;;;;;;;4.27;1.90;;;12.20;99.90;;;-141.84;86.00;19313.91;5019476;28;20371;-65
2022/07/11 02:13:07;;;;;;;2.07;1.73;;;12.10;99.90;;;-141.84;86.02;19248.88;5033210;28;20236;-64
2022/07/11 02:15:35;;;;;;;2.97;1.60;;;12.10;99.90;;;-141.84;85.98;19204.19;5033062;28;20464;-65
2022/07/11 02:18:03;;;;;;;1.70;1.57;;;12.10;99.90;;;-141.84;86.50;19204.19;5033365;28;20306;-65
2022/07/11 02:20:33;;;;;;;2.43;1.60;;;12.10;99.90;;;-141.84;85.94;19257.00;5012877;28;20207;-65
2022/07/11 02:23:03;;;;;;;6.90;1.67;;;12.00;99.90;;;-141.84;85.91;19210.28;5013778;28;20274;-64
2022/07/11 02:25:32;;;;;;;2.60;1.57;;;12.00;99.90;;;-141.84;85.34;19271.25;5013081;28;20306;-65
2022/07/11 02:28:00;;;;;;;2.10;1.90;;;12.10;99.90;;;-141.84;86.00;19240.75;5013053;28;20313;-64
2022/07/11 02:30:29;;;;;;;1.53;1.43;;;12.00;99.90;;;-141.84;85.06;19242.78;5013122;28;20261;-64
2022/07/11 02:32:58;;;;;;;1.70;1.60;;;12.00;99.90;;;-141.84;85.49;19228.56;5013068;28;20721;-65
2022/07/11 02:35:26;;;;;;;3.03;1.83;;;12.00;99.90;;;-141.84;85.86;19224.50;5012811;28;20258;-64
2022/07/11 02:37:54;;;;;;;2.90;1.73;;;12.00;99.90;;;-141.84;86.46;19222.47;5031791;28;20216;-64
2022/07/11 02:40:22;;;;;;;3.83;2.07;;;11.90;99.90;;;-141.84;86.14;19126.97;5032533;28;20309;-65
2022/07/11 02:42:50;;;;;;;3.40;1.93;;;11.90;99.90;;;-141.84;85.91;19194.03;5032768;28;20317;-64
2022/07/11 02:45:19;;;;;;;2.07;1.83;;;11.90;99.90;;;-141.84;86.11;19194.03;5032684;28;20252;-64
2022/07/11 02:47:48;;;;;;;3.10;1.80;;;12.00;99.90;;;-141.84;86.71;19196.06;5032814;28;20305;-65
2022/07/11 02:50:16;;;;;;;4.20;1.90;;;11.90;99.90;;;-141.84;86.87;19169.63;5032911;28;20280;-66
2022/07/11 02:52:45;;;;;;;5.17;2.10;;;11.90;99.90;;;-141.84;85.75;19210.28;5032292;28;20524;-63
2022/07/11 02:55:15;;;;;;;3.50;1.90;;;11.90;99.90;;;-141.84;86.35;19139.16;5032144;28;20228;-64
2022/07/11 02:57:43;;;;;;;2.57;2.30;;;11.90;99.90;;;-141.84;86.19;19175.72;5031285;28;20245;-65
2022/07/11 03:00:16;;;;;;;4.03;2.10;;;11.90;99.90;;;-141.84;86.55;19179.78;5032126;28;20709;-65
2022/07/11 03:02:45;;;;;;;3.00;2.27;;;11.90;99.90;;;-141.84;86.35;19198.09;5032477;28;20321;-65
2022/07/11 03:05:15;;;;;;;3.67;2.07;;;11.90;99.90;;;-141.84;86.67;19179.78;5032280;28;20745;-66
2022/07/11 03:07:43;;;;;;;3.43;2.03;;;11.90;99.90;;;-141.84;87.10;19171.66;5032025;28;20225;-66
2022/07/11 03:10:12;;;;;;;2.77;2.00;;;11.90;99.90;;;-141.84;87.32;19155.41;5031837;28;20318;-65
2022/07/11 03:12:41;;;;;;;4.03;2.17;;;11.80;99.90;;;-141.84;87.30;19157.44;5031792;28;20736;-64
2022/07/11 03:15:10;;;;;;;2.30;2.10;;;11.80;99.90;;;-141.84;88.06;19114.78;5031809;28;20364;-65
2022/07/11 03:17:39;;;;;;;3.30;2.27;;;11.70;99.90;;;-141.84;87.90;19155.41;5032092;28;20206;-66
2022/07/11 03:20:09;;;;;;;2.93;2.27;;;11.80;99.90;;;-141.84;88.49;19149.31;5032144;28;20232;-65
2022/07/11 03:22:39;;;;;;;2.57;1.87;;;11.80;99.90;;;-141.84;88.48;19118.84;5026277;28;20223;-65
2022/07/11 03:25:08;;;;;;;2.20;2.00;;;11.80;99.90;;;-141.84;88.06;19124.94;5012117;28;20250;-65
2022/07/11 03:27:36;;;;;;;3.93;2.10;;;11.80;99.90;;;-141.84;87.91;19141.19;5012096;28;20231;-64
2022/07/11 03:30:06;;;;;;;3.97;2.23;;;11.90;99.90;;;-141.84;86.74;19155.41;5011916;28;20321;-66
2022/07/11 03:32:34;;;;;;;3.07;2.30;;;12.00;99.90;;;-141.84;86.34;19179.78;5012119;28;20570;-65
2022/07/11 03:37:49;;;;;;;5.03;2.53;;;12.20;99.90;;;-141.84;83.47;19224.50;5029295;28;20218;-65
2022/07/11 03:40:17;;;;;;;3.37;2.23;;;12.30;99.90;;;-141.84;83.48;19204.19;5031270;28;20728;-64
2022/07/11 03:42:45;;;;;;;3.03;2.53;;;12.40;99.90;;;-141.84;84.43;19185.88;5031452;28;20583;-64
2022/07/11 03:45:14;;;;;;;4.83;2.50;;;12.30;99.90;;;-141.84;84.44;19214.34;5031360;28;20318;-65
2022/07/11 03:47:42;;;;;;;4.67;2.63;;;12.30;99.90;;;-141.84;85.59;19200.13;5031612;28;20222;-66
2022/07/11 03:50:10;;;;;;;4.07;2.07;;;12.20;99.90;;;-141.84;86.49;19116.81;5032062;28;20286;-65
2022/07/11 03:52:38;;;;;;;4.63;2.20;;;12.20;99.90;;;-141.84;86.46;19139.16;5031194;28;20314;-65
2022/07/11 03:55:09;;;;;;;4.30;2.20;;;12.20;99.90;;;-141.84;86.25;19122.91;5031409;28;20353;-64
2022/07/11 03:57:37;;;;;;;4.73;2.10;;;12.20;99.90;;;-141.84;85.82;19163.53;5031401;28;20309;-66
2022/07/11 04:00:08;;;;;;;2.70;2.00;;;12.20;99.90;;;-141.84;85.75;19147.28;5031583;28;20232;-65
2022/07/11 04:02:37;;;;;;;2.93;1.97;;;12.20;99.90;;;-141.84;86.24;19167.59;5031324;28;20202;-65
2022/07/11 04:05:07;;;;;;;2.93;1.97;;;12.20;99.90;;;-141.84;86.46;19171.66;5032019;28;20229;-65
2022/07/11 04:07:36;;;;;;;4.83;2.27;;;12.20;99.90;;;-141.84;86.15;19163.53;5030676;28;20768;-65
2022/07/11 04:10:04;;;;;;;2.70;1.97;;;12.20;99.90;;;-141.84;85.42;19187.91;5031195;28;20245;-65
2022/07/11 04:12:34;;;;;;;3.30;2.00;;;12.30;99.90;;;-141.84;85.98;19131.03;5030712;28;20713;-65
2022/07/11 04:15:02;;;;;;;3.07;1.87;;;12.30;99.90;;;-141.84;86.35;19149.31;5031211;28;20316;-65
2022/07/11 04:17:30;;;;;;;4.77;2.13;;;12.30;99.90;;;-141.84;85.58;19171.66;5031182;28;20295;-64
2022/07/11 04:19:58;;;;;;;3.80;2.00;;;12.30;99.90;;;-141.84;85.22;19183.84;5031073;28;20243;-65
2022/07/11 04:22:27;;;;;;;3.07;1.87;;;12.40;99.90;;;-141.84;84.81;19208.25;5030859;28;20226;-65
2022/07/11 04:24:55;;;;;;;2.77;1.93;;;12.40;99.90;;;-141.84;83.42;19232.63;5031067;28;20226;-65
2022/07/11 04:27:24;;;;;;;2.47;1.70;;;12.50;99.90;;;-141.84;83.57;19222.47;5031034;28;20224;-64
2022/07/11 04:29:59;;;;;;;6.43;2.10;;;12.60;99.90;;;-141.84;83.37;19267.16;5031001;28;20324;-66
2022/07/11 04:32:27;;;;;;;4.10;1.97;;;12.70;99.90;;;-141.84;83.29;19257.00;5030992;28;20234;-66
2022/07/11 04:34:55;;;;;;;2.73;1.80;;;12.70;99.90;;;-141.84;83.14;19244.81;5031127;28;20294;-66
2022/07/11 04:37:26;;;;;;;3.53;2.20;;;12.80;99.90;;;-141.84;82.91;19236.69;5030564;28;20253;-65
2022/07/11 04:39:54;;;;;;;3.63;1.60;;;12.90;99.90;;;-141.84;81.13;19275.31;5030802;28;20332;-65
2022/07/11 04:42:22;;;;;;;3.87;2.00;;;13.00;99.90;;;-141.84;81.77;19273.28;5030599;28;20230;-65
2022/07/11 04:44:51;;;;;;;3.43;1.80;;;13.10;99.90;;;-141.84;81.72;19281.41;5030593;28;20234;-65
2022/07/11 04:47:20;;;;;;;3.80;2.00;;;13.20;99.90;;;-141.84;80.88;19317.97;5030985;28;20233;-67
2022/07/11 04:49:50;;;;;;;2.40;1.67;;;13.30;99.90;;;-141.84;80.07;19336.25;5030608;28;20213;-65
2022/07/11 04:52:18;;;;;;;5.97;2.17;;;13.40;99.90;;;-141.84;79.52;19383.00;5030113;28;20653;-65
2022/07/11 04:54:47;;;;;;;5.23;3.57;;;13.50;99.90;;;-141.84;77.81;19383.00;5030359;28;20260;-65
2022/07/11 04:57:15;;;;;;;4.77;2.00;;;13.70;99.90;;;-141.84;76.42;19537.44;5029994;28;20996;-67
2022/07/11 04:59:43;;;;;;;2.95;1.58;;;14.20;99.90;;;-141.84;66.32;19927.66;5030461;28;20222;-66
2022/07/11 05:02:11;;;;;;;3.70;1.50;;;15.50;99.90;;;-141.84;55.24;20399.19;5030794;28;20325;-65
2022/07/11 05:04:41;;;;;;;2.65;1.48;;;17.00;99.90;;;-141.84;50.23;20691.91;5030293;28;20249;-66
2022/07/11 05:07:09;;;;;;;4.15;1.48;;;18.80;99.90;;;-141.84;45.52;21055.81;5029600;28;20222;-66
2022/07/11 05:09:37;;;;;;;2.40;1.20;;;;;;;-141.84;42.83;21320.09;5030204;28;20233;-65
2022/07/11 05:12:09;;;;;;;2.70;1.20;;;22.70;99.90;;;-141.84;39.95;21535.63;5031284;28;20519;-66
2022/07/11 05:14:37;;;;;;;3.50;1.15;;;22.10;99.90;;;-141.84;37.40;21753.19;5029164;28;20193;-67
2022/07/11 05:17:05;;;;;;;2.70;1.30;;;22.90;99.90;;;-141.84;36.85;21842.66;5010808;28;20751;-64
2022/07/11 05:19:34;;;;;;;2.88;1.10;;;23.30;99.90;;;-141.84;36.34;21889.44;5010957;28;20241;-67
2022/07/11 05:22:03;;;;;;;2.70;1.58;;;23.40;99.90;;;-141.84;35.15;22072.44;5014084;28;20234;-67
2022/07/11 05:24:32;;;;;;;4.57;1.77;;;23.60;99.90;;;-141.84;35.01;22058.22;5014591;28;20280;-66
2022/07/11 05:27:00;;;;;;;3.50;1.20;;;23.80;99.90;;;-141.84;34.52;22021.59;5014436;28;20736;-66
2022/07/11 05:29:28;;;;;;;2.53;1.10;;;23.30;99.90;;;-141.84;34.56;22039.91;5014447;28;20370;-67
2022/07/11 05:31:56;;;;;;;2.25;1.08;;;23.00;99.90;;;-141.84;34.95;22009.41;5014988;28;20605;-65
2022/07/11 05:34:25;;;;;;;2.92;1.23;;;23.00;99.90;;;-141.84;36.03;21806.06;5014093;28;20261;-65
2022/07/11 05:36:54;;;;;;;3.22;1.23;;;22.50;99.90;;;-141.84;37.66;21651.53;5023679;28;20231;-65
2022/07/11 05:39:23;;;;;;;2.03;1.30;;;22.20;99.90;;;-141.84;38.77;21521.41;5033866;28;20325;-66
2022/07/11 05:41:51;;;;;;;2.42;1.20;;;22.20;99.90;;;-141.84;39.72;21391.28;5033831;28;20228;-65
2022/07/11 05:44:19;;;;;;;2.78;1.10;;;21.80;99.90;;;-141.84;41.52;21098.50;5034196;28;20205;-65
2022/07/11 05:46:48;;;;;;;5.13;1.08;;;21.30;99.90;;;-141.84;44.85;20793.56;5033850;28;20265;-65
2022/07/11 05:49:16;;;;;;;3.92;1.63;;;20.40;99.90;;;-141.84;47.65;20643.13;5033593;28;20250;-66
2022/07/11 05:51:44;;;;;;;3.42;1.15;;;19.90;99.90;;;-141.84;50.25;20508.97;5033488;28;20313;-66
2022/07/11 05:54:12;;;;;;;3.95;1.27;;;19.50;99.90;;;-141.84;51.04;20456.13;5033468;28;20222;-65
2022/07/11 05:56:42;;;;;;;2.25;0.98;;;19.30;99.90;;;-141.84;52.41;20387.00;5033609;28;20244;-66
2022/07/11 05:59:10;;;;;;;2.17;1.10;;;18.80;99.90;;;-141.84;53.14;20321.97;5033755;28;20688;-64
2022/07/11 06:01:38;;;;;;;2.65;1.02;;;18.60;99.90;;;-141.84;54.55;20326.03;5033316;28;20309;-66
2022/07/11 06:04:06;;;;;;;4.28;1.00;;;18.60;99.90;;;-141.84;53.90;20303.66;5033189;28;20222;-67
2022/07/11 06:06:34;;;;;;;1.55;1.08;;;18.40;99.90;;;-141.84;55.31;20252.84;5033271;28;20249;-65
2022/07/11 06:09:03;;;;;;;4.35;1.67;;;18.20;99.90;;;-141.84;55.58;20254.88;5033160;28;20300;-65
2022/07/11 06:11:32;;;;;;;2.78;1.10;;;18.10;99.90;;;-141.84;54.60;20269.13;5026905;28;20230;-65
2022/07/11 06:14:02;;;;;;;2.50;1.20;;;18.20;99.90;;;-141.84;54.69;20271.16;5013905;28;20298;-65
2022/07/11 06:16:30;;;;;;;1.77;1.00;;;18.40;99.90;;;-141.84;54.65;20258.94;5013319;28;20313;-65
2022/07/11 06:18:59;;;;;;;1.95;0.90;;;18.40;99.90;;;-141.84;54.17;20260.97;5013377;28;20560;-64
2022/07/11 06:21:28;;;;;;;2.50;1.33;;;18.50;99.90;;;-141.84;54.16;20338.22;5013127;28;20706;-67
2022/07/11 06:23:56;;;;;;;3.08;1.05;;;18.50;99.90;;;-141.84;54.74;20279.28;5013250;28;20222;-65
2022/07/11 06:26:24;;;;;;;4.20;1.10;;;18.60;99.90;;;-141.84;51.33;20305.69;5013225;28;20206;-65
2022/07/11 06:28:52;;;;;;;2.83;0.90;;;18.60;99.90;;;-141.84;51.06;20443.91;5013342;28;20207;-65
2022/07/11 06:31:22;;;;;;;0.75;0.73;;;18.60;99.90;;;-141.84;51.02;20340.25;5012858;28;20235;-66
2022/07/11 06:33:54;;;;;;;1.48;0.63;;;18.60;99.90;;;-141.84;51.18;20397.16;5012900;28;20288;-64
2022/07/11 06:36:24;;;;;;;2.30;0.90;;;18.50;99.90;;;-141.84;51.26;20330.09;5018975;28;20232;-66
2022/07/11 06:38:53;;;;;;;0.90;0.80;;;18.50;99.90;;;-141.84;50.73;20362.63;5032763;28;20304;-66
2022/07/11 06:41:21;;;;;;;4.93;0.90;;;18.20;99.90;;;-141.84;51.16;20370.75;5032807;28;20328;-67
2022/07/11 06:43:50;;;;;;;1.92;0.90;;;18.40;99.90;;;-141.84;49.08;20517.09;5033315;28;20208;-66
2022/07/11 06:46:20;;;;;;;1.65;0.90;;;18.70;99.90;;;-141.84;47.50;20533.34;5032735;28;20221;-67
2022/07/11 06:48:48;;;;;;;1.98;0.68;;;18.90;99.90;;;-141.84;47.22;20541.50;5032654;28;20648;-66
2022/07/11 06:51:17;;;;;;;3.05;0.90;;;19.00;99.90;;;-141.84;47.68;20557.75;5032559;28;20271;-66
2022/07/11 06:53:45;;;;;;;1.60;0.80;;;19.20;99.90;;;-141.84;47.19;20563.84;5032414;28;20220;-64
2022/07/11 06:56:14;;;;;;;2.03;0.82;;;19.40;99.90;;;-141.84;46.71;20598.41;5032984;28;20205;-65
2022/07/11 06:58:42;;;;;;;1.67;0.70;;;19.60;99.90;;;-141.84;47.59;20561.81;5032229;28;20765;-65
2022/07/11 07:01:10;;;;;;;1.38;0.70;;;19.50;99.90;;;-141.84;49.00;20519.13;5032219;28;20226;-66
2022/07/11 07:03:40;;;;;;;2.10;0.90;;;19.30;99.90;;;-141.84;48.74;20533.34;5032320;28;20230;-67
2022/07/11 07:06:08;;;;;;;2.15;0.70;;;19.30;99.90;;;-141.84;49.26;20484.56;5032370;28;20225;-66
2022/07/11 07:08:37;;;;;;;2.58;0.68;;;19.20;99.90;;;-141.84;48.80;20492.72;5021175;28;20428;-66
2022/07/11 07:11:05;;;;;;;1.15;0.80;;;19.00;99.90;;;-141.84;49.58;20447.97;5032788;28;20198;-65
2022/07/11 07:13:36;;;;;;;1.77;0.82;;;18.90;99.90;;;-141.84;49.31;20472.38;5032360;28;20312;-66
2022/07/11 07:16:06;;;;;;;3.08;0.75;;;18.90;99.90;;;-141.84;49.81;20482.53;5032007;28;20233;-66
2022/07/11 07:18:37;;;;;;;1.15;0.70;;;18.90;99.90;;;-141.84;49.42;20456.13;5031962;28;20230;-63
2022/07/11 07:21:07;;;;;;;2.95;0.82;;;18.80;99.90;;;-141.84;49.78;20419.53;5031815;28;20717;-64
2022/07/11 07:23:35;;;;;;;3.83;0.90;;;18.70;99.90;;;-141.84;49.43;20437.81;5031717;28;20308;-65
2022/07/11 07:26:03;;;;;;;1.50;0.85;;;18.50;99.90;;;-141.84;49.90;20391.06;5032430;28;20297;-63
2022/07/11 07:28:31;;;;;;;5.05;0.95;;;18.40;99.90;;;-141.84;50.24;20366.69;5031826;28;20581;-63
2022/07/11 07:30:59;;;;;;;4.85;0.90;;;18.30;99.90;;;-141.84;51.56;20346.34;5031613;28;20308;-64
2022/07/11 07:33:28;;;;;;;2.88;0.90;;;18.30;99.90;;;-141.84;51.14;20342.28;5031933;28;20287;-63
2022/07/11 07:36:14;;;;;;;2.13;0.70;;;18.20;99.90;;;-141.84;52.03;20267.09;5031454;28;20271;-64
2022/07/11 07:38:43;;;;;;;0.90;0.70;;;18.00;99.90;;;-141.84;52.57;20263.00;5031509;28;20230;-63
2022/07/11 07:41:12;;;;;;;3.63;1.15;;;17.80;99.90;;;-141.84;51.18;20313.84;5032263;28;20202;-63
2022/07/11 07:43:42;;;;;;;1.70;0.70;;;17.90;99.90;;;-141.84;50.27;20387.00;5030909;28;20236;-63
2022/07/11 07:46:11;;;;;;;1.67;0.93;;;18.10;99.90;;;-141.84;50.12;20417.50;5031346;28;20329;-64
2022/07/11 07:48:39;;;;;;;1.05;0.60;;;18.40;99.90;;;-141.84;47.91;20476.44;5031461;28;20717;-63
2022/07/11 07:51:09;;;;;;;1.40;0.63;;;18.70;99.90;;;-141.84;47.22;20506.94;5031409;28;20260;-63
2022/07/11 07:53:38;;;;;;;2.08;0.70;;;18.90;99.90;;;-141.84;46.95;20525.22;5031488;28;20304;-64
2022/07/11 07:56:07;;;;;;;1.05;0.60;;;18.90;99.90;;;-141.84;46.92;20492.72;5031264;28;20301;-63
2022/07/11 07:58:35;;;;;;;1.75;0.80;;;19.00;99.90;;;-141.84;46.41;20472.38;5031175;28;20309;-63
2022/07/11 08:03:49;;;;;;;2.88;0.80;;;18.80;99.90;;;-141.84;48.10;20423.59;5030163;28;20268;-62
2022/07/11 08:06:17;;;;;;;2.28;0.70;;;18.70;99.90;;;-141.84;47.93;20454.09;5030532;28;20302;-62
2022/07/11 08:08:47;;;;;;;1.27;0.57;;;18.60;99.90;;;-141.84;47.83;20450.03;5034297;28;20732;-61
2022/07/11 08:11:16;;;;;;;1.33;0.88;;;18.70;99.90;;;-141.84;48.66;20460.19;5044943;28;20684;-59
2022/07/11 08:14:00;;;;;;;0.85;0.60;;;18.90;99.90;;;-141.84;47.06;20513.03;5031121;28;20885;-60
2022/07/11 08:16:29;;;;;;;0.70;0.70;;;19.00;99.90;;;-141.84;46.08;20508.97;5030486;28;20236;-61
2022/07/11 08:19:00;;;;;;;0.75;0.60;;;18.90;99.90;;;-141.84;45.79;20443.91;5030634;28;20258;-61
2022/07/11 08:21:29;;;;;;;1.92;0.60;;;18.60;99.90;;;-141.84;45.55;20445.94;5030503;28;20799;-62
2022/07/11 08:23:59;;;;;;;0.85;0.70;;;18.40;99.90;;;-141.84;46.67;20384.97;5030707;28;20225;-62
2022/07/11 08:26:27;;;;;;;0.70;0.47;;;18.30;99.90;;;-141.84;46.60;20464.25;5031077;28;20278;-71
2022/07/11 08:29:02;;;;;;;0.90;0.70;;;18.50;99.90;;;-141.84;45.17;20547.59;5031869;28;20182;-68
2022/07/11 08:31:30;;;;;;;2.83;0.90;;;18.80;99.90;;;-141.84;45.18;20557.75;5030378;28;20230;-69
2022/07/11 08:33:59;;;;;;;1.58;0.68;;;18.90;99.90;;;-141.84;46.51;20466.28;5031293;28;20304;-61
2022/07/11 08:36:29;;;;;;;1.17;0.70;;;18.90;99.90;;;-141.84;45.06;20557.75;5030296;28;20279;-62
2022/07/11 08:39:00;;;;;;;0.98;0.80;;;19.00;99.90;;;-141.84;44.68;20549.63;5030479;28;20248;-63
2022/07/11 08:41:28;;;;;;;2.80;1.40;;;18.90;99.90;;;-141.84;44.69;20517.09;5030360;28;20236;-62
2022/07/11 08:43:57;;;;;;;2.38;1.40;;;18.80;99.90;;;-141.84;45.55;20498.81;5031005;28;20252;-62
2022/07/11 08:46:27;;;;;;;1.58;0.80;;;18.70;99.90;;;-141.84;44.80;20496.78;5030266;28;20751;-61
2022/07/11 08:48:57;;;;;;;1.27;0.88;;;18.80;99.90;;;-141.84;44.92;20472.38;5030348;28;20222;-62
2022/07/11 08:51:27;;;;;;;1.58;0.70;;;18.70;99.90;;;-141.84;44.31;20468.31;5029963;28;20236;-63
2022/07/11 08:53:55;;;;;;;1.95;0.80;;;18.60;99.90;;;-141.84;44.72;20496.78;5029448;28;20222;-61
2022/07/11 08:56:29;;;;;;;1.90;0.73;;;18.60;99.90;;;-141.84;43.69;20541.50;5030157;28;20205;-62
2022/07/11 08:59:00;;;;;;;1.17;0.80;;;18.80;99.90;;;-141.84;43.58;20622.81;5030727;28;20223;-64
2022/07/11 09:01:31;;;;;;;1.23;1.00;;;19.10;99.90;;;-141.84;42.89;20628.91;5013597;28;20227;-63
2022/07/11 09:04:01;;;;;;;2.15;1.13;;;19.20;99.90;;;-141.84;43.43;20598.41;5010166;28;20783;-63
2022/07/11 09:06:30;;;;;;;1.80;1.00;;;19.20;99.90;;;-141.84;43.12;20545.56;5016876;28;20229;-63
2022/07/11 09:09:00;;;;;;;1.25;0.88;;;19.20;99.90;;;-141.84;44.24;20529.28;5035052;28;20300;-64
2022/07/11 09:11:50;;;;;;;1.55;0.90;;;19.00;99.90;;;-141.84;44.42;20549.63;5042035;28;20209;-63
2022/07/11 09:14:26;;;;;;;1.83;1.00;;;19.00;99.90;;;-141.84;43.11;20630.94;5030692;28;20212;-63
2022/07/11 09:16:58;;;;;;;2.80;1.00;;;19.30;99.90;;;-141.84;42.34;20742.75;5029994;28;20241;-63
2022/07/11 09:19:30;;;;;;;2.00;1.00;;;19.70;99.90;;;-141.84;41.24;20795.59;5030067;28;20236;-64
2022/07/11 09:27:47;;;;;;;1.30;0.80;;;19.90;99.90;;;-141.84;42.01;20635.00;5029999;28;20226;-63
2022/07/11 09:30:23;;;;;;;1.92;0.70;;;19.70;99.90;;;-141.84;41.92;20655.31;5029756;28;20731;-62
2022/07/11 09:32:58;;;;;;;1.55;0.80;;;19.60;99.90;;;-141.84;41.83;20673.63;5029876;28;20222;-63
2022/07/11 09:35:30;;;;;;;2.20;0.73;;;19.50;99.90;;;-141.84;41.61;20691.91;5029871;28;20197;-63
2022/07/11 09:37:58;;;;;;;1.15;0.60;;;19.50;99.90;;;-141.84;41.84;20700.03;5030224;28;20293;-63
2022/07/11 09:40:26;;;;;;;1.38;0.82;;;19.60;99.90;;;-141.84;42.31;20704.13;5029788;28;20325;-63
2022/07/11 09:42:59;;;;;;;1.40;0.90;;;19.50;99.90;;;-141.84;43.94;20582.16;5029688;28;20253;-63
2022/07/11 09:45:30;;;;;;;0.82;0.70;;;19.40;99.90;;;-141.84;43.75;20517.09;5029829;28;20222;-64
2022/07/11 09:48:01;;;;;;;1.67;0.70;;;19.10;99.90;;;-141.84;43.33;20537.44;5029435;28;20253;-62
2022/07/11 09:50:32;;;;;;;1.02;0.93;;;19.00;99.90;;;-141.84;42.79;20608.56;5029342;28;20206;-62
2022/07/11 09:53:03;;;;;;;1.35;0.85;;;19.20;99.90;;;-141.84;41.60;20698.00;5029987;28;20298;-62
2022/07/11 09:55:33;;;;;;;1.42;0.70;;;19.60;99.90;;;-141.84;40.60;20759.00;5029648;28;20226;-63
2022/07/11 09:58:29;;;;;;;3.25;0.80;;;19.90;99.90;;;-141.84;40.00;20844.38;5009706;28;20222;-63
2022/07/11 10:00:58;;;;;;;1.00;0.80;;;20.10;99.90;;;-141.84;39.12;20834.22;5009884;28;20792;-62
2022/07/11 10:03:26;;;;;;;1.50;0.70;;;20.30;99.90;;;-141.84;40.09;20799.66;5009765;28;20232;-63
2022/07/11 10:06:14;;;;;;;1.10;0.80;;;20.20;99.90;;;-141.84;40.07;20803.72;5033732;28;20226;-64
2022/07/11 10:08:42;;;;;;;1.20;0.80;;;20.40;99.90;;;-141.84;38.72;20946.03;5032789;28;20599;-64
2022/07/11 10:11:12;;;;;;;2.47;1.00;;;20.70;99.90;;;-141.84;38.75;21053.78;5028134;28;20226;-64
2022/07/11 10:13:42;;;;;;;1.30;0.88;;;21.10;99.90;;;-141.84;36.96;21106.63;5013035;28;20223;-64
2022/07/11 10:16:23;;;;;;;0.77;0.60;;;21.40;99.90;;;-141.84;36.64;21169.66;5013367;28;20728;-64
2022/07/11 10:19:08;;;;;;;1.85;0.70;;;21.70;99.90;;;-141.84;37.06;21163.56;5013154;28;20230;-64
2022/07/11 10:21:46;;;;;;;1.20;0.80;;;21.70;99.90;;;-141.84;36.99;21096.47;5012925;28;20256;-65
2022/07/11 10:24:34;;;;;;;0.85;0.82;;;21.60;99.90;;;-141.84;37.57;21061.91;5012841;28;20776;-67
2022/07/11 10:27:16;;;;;;;1.60;0.70;;;21.50;99.90;;;-141.84;37.50;21002.94;5013110;28;20223;-63
2022/07/11 10:29:52;;;;;;;1.33;0.90;;;21.30;99.90;;;-141.84;36.70;21039.53;5013392;28;20228;-63